createdAt,value
2018-03-17T00:01:36.722Z,3.80
2018-03-17T00:04:03.107Z,3.90
2018-03-17T00:06:29.419Z,3.90
2018-03-17T00:08:56.507Z,3.80
2018-03-17T00:11:22.843Z,3.80
2018-03-17T00:13:49.166Z,3.80
2018-03-17T00:16:15.487Z,3.80
2018-03-17T00:18:41.795Z,3.80
2018-03-17T00:21:08.858Z,3.80
2018-03-17T00:23:35.173Z,3.80
2018-03-17T00:26:02.230Z,3.70
2018-03-17T00:28:28.546Z,3.70
2018-03-17T00:30:55.602Z,3.70
2018-03-17T00:33:23.675Z,3.60
2018-03-17T00:35:50.018Z,3.60
2018-03-17T00:38:16.323Z,3.60
2018-03-17T00:40:44.411Z,3.70
2018-03-17T00:43:10.737Z,3.70
2018-03-17T00:45:38.059Z,3.70
2018-03-17T00:48:05.110Z,3.60
2018-03-17T00:50:31.493Z,3.60
2018-03-17T00:52:57.815Z,3.70
2018-03-17T00:55:24.156Z,3.70
2018-03-17T00:57:50.498Z,3.70
2018-03-17T01:00:16.870Z,3.70
2018-03-17T01:02:43.197Z,3.70
2018-03-17T01:05:09.567Z,3.70
2018-03-17T01:07:36.270Z,3.70
2018-03-17T01:10:02.591Z,3.70
2018-03-17T01:12:28.895Z,3.70
2018-03-17T01:14:56.236Z,3.70
2018-03-17T01:17:22.595Z,3.60
2018-03-17T01:19:49.901Z,3.70
2018-03-17T01:22:16.259Z,3.60
2018-03-17T01:24:42.570Z,3.60
2018-03-17T01:27:08.870Z,3.60
2018-03-17T01:29:36.067Z,3.60
2018-03-17T01:32:02.410Z,3.60
2018-03-17T01:34:28.735Z,3.60
2018-03-17T01:36:55.043Z,3.60
2018-03-17T01:39:22.347Z,3.50
2018-03-17T01:41:48.694Z,3.60
2018-03-17T01:44:15.006Z,3.60
2018-03-17T01:46:42.797Z,3.60
2018-03-17T01:49:09.868Z,3.60
2018-03-17T01:51:36.207Z,3.60
2018-03-17T01:54:15.763Z,3.70
2018-03-17T01:56:42.070Z,3.70
2018-03-17T01:59:08.390Z,3.60
2018-03-17T02:01:35.442Z,3.60
2018-03-17T02:04:01.746Z,3.60
2018-03-17T02:06:28.046Z,3.60
2018-03-17T02:08:54.335Z,3.70
2018-03-17T02:11:21.656Z,3.70
2018-03-17T02:13:47.970Z,3.60
2018-03-17T02:16:14.287Z,3.60
2018-03-17T02:18:40.602Z,3.60
2018-03-17T02:21:06.928Z,3.70
2018-03-17T02:23:33.248Z,3.70
2018-03-17T02:25:59.587Z,3.70
2018-03-17T02:28:25.907Z,3.70
2018-03-17T02:30:53.240Z,3.70
2018-03-17T02:33:20.301Z,3.70
2018-03-17T02:35:46.629Z,3.70
2018-03-17T02:38:13.679Z,3.80
2018-03-17T02:40:40.004Z,3.70
2018-03-17T02:43:07.067Z,3.80
2018-03-17T02:45:33.384Z,3.80
2018-03-17T02:48:00.447Z,3.80
2018-03-17T02:50:26.775Z,3.80
2018-03-17T02:52:53.100Z,3.80
2018-03-17T02:55:20.182Z,3.80
2018-03-17T02:57:46.490Z,3.70
2018-03-17T03:00:12.815Z,3.70
2018-03-17T03:02:40.195Z,3.70
2018-03-17T03:05:07.545Z,3.70
2018-03-17T03:07:33.878Z,3.80
2018-03-17T03:10:00.198Z,3.80
2018-03-17T03:12:26.575Z,3.80
2018-03-17T03:14:52.883Z,3.70
2018-03-17T03:17:19.227Z,3.70
2018-03-17T03:19:45.553Z,3.60
2018-03-17T03:22:11.869Z,3.60
2018-03-17T03:24:38.260Z,3.50
2018-03-17T03:27:07.043Z,3.50
2018-03-17T03:29:33.376Z,3.50
2018-03-17T03:31:59.678Z,3.50
2018-03-17T03:34:26.970Z,3.40
2018-03-17T03:36:54.018Z,3.40
2018-03-17T03:39:21.076Z,3.40
2018-03-17T03:41:48.114Z,3.40
2018-03-17T03:44:15.616Z,3.50
2018-03-17T03:46:41.953Z,3.40
2018-03-17T03:49:08.314Z,3.50
2018-03-17T03:51:34.631Z,3.60
2018-03-17T03:54:00.954Z,3.60
2018-03-17T03:56:27.275Z,3.70
2018-03-17T03:58:53.591Z,3.70
2018-03-17T04:01:19.906Z,3.70
2018-03-17T04:03:46.215Z,3.80
2018-03-17T04:06:13.346Z,3.70
2018-03-17T04:08:39.663Z,3.70
2018-03-17T04:11:05.998Z,3.80
2018-03-17T04:13:32.305Z,3.80
2018-03-17T04:15:58.646Z,3.80
2018-03-17T04:18:24.963Z,3.80
2018-03-17T04:20:51.290Z,3.80
2018-03-17T04:23:17.630Z,3.80
2018-03-17T04:25:43.955Z,3.70
2018-03-17T04:28:10.286Z,3.70
2018-03-17T04:30:36.619Z,3.70
2018-03-17T04:33:02.936Z,3.60
2018-03-17T04:35:29.280Z,3.60
2018-03-17T04:37:55.595Z,3.60
2018-03-17T04:40:22.958Z,3.60
2018-03-17T04:42:49.275Z,3.60
2018-03-17T04:45:15.591Z,3.60
2018-03-17T04:47:42.638Z,3.60
2018-03-17T04:50:09.690Z,3.60
2018-03-17T04:52:36.014Z,3.60
2018-03-17T04:55:03.090Z,3.60
2018-03-17T04:57:30.510Z,3.60
2018-03-17T04:59:57.590Z,3.60
2018-03-17T05:02:23.898Z,3.60
2018-03-17T05:04:50.967Z,3.50
2018-03-17T05:07:17.342Z,3.50
2018-03-17T05:09:43.655Z,3.50
2018-03-17T05:12:09.970Z,3.50
2018-03-17T05:14:36.282Z,3.40
2018-03-17T05:17:02.603Z,3.40
2018-03-17T05:19:29.666Z,3.30
2018-03-17T05:21:56.977Z,3.30
2018-03-17T05:24:23.328Z,3.30
2018-03-17T05:26:51.050Z,3.30
2018-03-17T05:29:18.362Z,3.30
2018-03-17T05:31:44.815Z,3.30
2018-03-17T05:34:11.121Z,3.30
2018-03-17T05:36:38.174Z,3.40
2018-03-17T05:39:04.514Z,3.30
2018-03-17T05:41:30.829Z,3.40
2018-03-17T05:43:57.891Z,3.40
2018-03-17T05:46:25.238Z,3.40
2018-03-17T05:48:51.544Z,3.40
2018-03-17T05:51:18.611Z,3.50
2018-03-17T05:53:45.791Z,3.60
2018-03-17T05:56:12.131Z,3.50
2018-03-17T05:58:39.483Z,3.60
2018-03-17T06:01:05.806Z,3.60
2018-03-17T06:03:32.132Z,3.70
2018-03-17T06:05:58.455Z,3.70
2018-03-17T06:08:24.774Z,3.80
2018-03-17T06:10:51.075Z,3.80
2018-03-17T06:13:17.390Z,3.80
2018-03-17T06:15:43.707Z,3.80
2018-03-17T06:18:10.018Z,3.80
2018-03-17T06:20:36.343Z,3.90
2018-03-17T06:23:02.654Z,3.90
2018-03-17T06:25:29.729Z,4.00
2018-03-17T06:27:56.115Z,4.00
2018-03-17T06:30:23.179Z,4.10
2018-03-17T06:32:50.271Z,4.20
2018-03-17T06:35:16.583Z,4.20
2018-03-17T06:37:42.903Z,4.20
2018-03-17T06:40:09.243Z,4.20
2018-03-17T06:42:35.559Z,4.30
2018-03-17T06:45:02.655Z,4.50
2018-03-17T06:47:28.972Z,4.50
2018-03-17T06:49:55.384Z,4.60
2018-03-17T06:52:21.707Z,4.70
2018-03-17T06:54:48.762Z,4.90
2018-03-17T06:57:15.083Z,4.90
2018-03-17T06:59:42.139Z,5.20
2018-03-17T07:02:08.442Z,5.20
2018-03-17T07:04:34.746Z,5.40
2018-03-17T07:07:01.067Z,5.50
2018-03-17T07:09:29.094Z,5.70
2018-03-17T07:11:56.142Z,5.80
2018-03-17T07:14:23.195Z,6.10
2018-03-17T07:16:49.524Z,6.10
2018-03-17T07:19:16.541Z,6.30
2018-03-17T07:21:43.889Z,6.50
2018-03-17T07:24:10.211Z,6.80
2018-03-17T07:26:36.543Z,7.10
2018-03-17T07:29:02.875Z,7.30
2018-03-17T07:31:29.185Z,7.40
2018-03-17T07:33:55.506Z,7.40
2018-03-17T07:36:21.842Z,7.40
2018-03-17T07:38:48.167Z,7.40
2018-03-17T07:41:14.523Z,7.60
2018-03-17T07:43:40.834Z,7.80
2018-03-17T07:46:07.150Z,7.90
2018-03-17T07:48:33.466Z,8.00
2018-03-17T07:50:59.840Z,8.00
2018-03-17T07:53:26.167Z,8.00
2018-03-17T07:55:52.480Z,8.00
2018-03-17T07:58:18.831Z,8.10
2018-03-17T08:00:45.315Z,8.40
2018-03-17T08:03:12.370Z,8.60
2018-03-17T08:05:38.687Z,8.60
2018-03-17T08:08:05.745Z,8.50
2018-03-17T08:10:32.807Z,8.70
2018-03-17T08:12:59.134Z,8.60
2018-03-17T08:15:25.454Z,8.80
2018-03-17T08:17:52.510Z,9.00
2018-03-17T08:20:18.831Z,9.00
2018-03-17T08:22:45.248Z,9.00
2018-03-17T08:25:11.618Z,9.20
2018-03-17T08:27:37.996Z,9.30
2018-03-17T08:30:04.318Z,9.50
2018-03-17T08:32:30.639Z,9.60
2018-03-17T08:34:56.963Z,9.80
2018-03-17T08:37:23.280Z,9.80
2018-03-17T08:39:50.746Z,9.90
2018-03-17T08:42:17.127Z,9.80
2018-03-17T08:44:44.183Z,9.90
2018-03-17T08:47:11.244Z,10.00
2018-03-17T08:49:37.554Z,9.90
2018-03-17T08:52:04.626Z,10.30
2018-03-17T08:54:30.988Z,10.30
2018-03-17T08:56:57.346Z,9.90
2018-03-17T08:59:23.682Z,9.80
2018-03-17T09:01:50.537Z,9.70
2018-03-17T09:04:17.599Z,9.90
2018-03-17T09:06:44.737Z,10.20
2018-03-17T09:09:11.811Z,10.20
2018-03-17T09:11:38.123Z,10.10
2018-03-17T09:14:05.177Z,10.40
2018-03-17T09:16:31.555Z,10.30
2018-03-17T09:18:57.891Z,10.10
2018-03-17T09:21:24.211Z,9.80
2018-03-17T09:23:50.537Z,9.60
2018-03-17T09:26:16.851Z,9.40
2018-03-17T09:28:43.179Z,8.90
2018-03-17T09:31:09.612Z,8.80
2018-03-17T09:33:35.934Z,8.60
2018-03-17T09:36:02.265Z,8.20
2018-03-17T09:38:28.590Z,7.90
2018-03-17T09:40:55.644Z,7.50
2018-03-17T09:43:21.987Z,7.50
2018-03-17T09:45:48.307Z,7.30
2018-03-17T09:48:14.621Z,7.50
2018-03-17T09:50:41.682Z,7.80
2018-03-17T09:53:08.017Z,7.80
2018-03-17T09:55:34.338Z,7.70
2018-03-17T09:58:01.420Z,7.40
2018-03-17T10:00:27.756Z,7.40
2018-03-17T10:02:54.070Z,7.30
2018-03-17T10:05:20.382Z,7.30
2018-03-17T10:07:47.461Z,6.90
2018-03-17T10:10:13.777Z,6.90
2018-03-17T10:12:40.090Z,7.10
2018-03-17T10:15:07.147Z,7.00
2018-03-17T10:17:33.483Z,7.00
2018-03-17T10:20:00.800Z,6.80
2018-03-17T10:22:27.206Z,6.70
2018-03-17T10:24:53.535Z,6.70
2018-03-17T10:27:19.847Z,6.70
2018-03-17T10:29:46.159Z,7.00
2018-03-17T10:32:12.470Z,7.10
2018-03-17T10:34:39.537Z,7.00
2018-03-17T10:37:05.870Z,7.00
2018-03-17T10:39:32.182Z,7.20
2018-03-17T10:41:59.812Z,7.10
2018-03-17T10:44:26.130Z,7.00
2018-03-17T10:46:52.463Z,7.10
2018-03-17T10:49:18.773Z,7.30
2018-03-17T10:51:45.366Z,7.30
2018-03-17T10:54:12.446Z,7.40
2018-03-17T10:56:38.790Z,7.40
2018-03-17T10:59:05.154Z,7.30
2018-03-17T11:01:34.530Z,7.40
2018-03-17T11:04:00.872Z,7.40
2018-03-17T11:06:27.191Z,7.50
2018-03-17T11:08:53.495Z,7.60
2018-03-17T11:11:19.851Z,7.50
2018-03-17T11:13:46.175Z,7.70
2018-03-17T11:16:12.502Z,7.60
2018-03-17T11:18:38.801Z,7.70
2018-03-17T11:21:06.883Z,7.70
2018-03-17T11:23:33.202Z,7.60
2018-03-17T11:26:00.254Z,7.60
2018-03-17T11:28:26.633Z,7.50
2018-03-17T11:30:52.913Z,7.30
2018-03-17T11:33:19.975Z,7.20
2018-03-17T11:35:47.309Z,7.20
2018-03-17T11:38:14.401Z,7.00
2018-03-17T11:40:40.749Z,7.00
2018-03-17T11:43:07.090Z,6.80
2018-03-17T11:45:34.396Z,6.60
2018-03-17T11:48:00.730Z,6.50
2018-03-17T11:50:27.058Z,6.60
2018-03-17T11:52:53.380Z,6.60
2018-03-17T11:55:20.430Z,6.60
2018-03-17T11:57:47.478Z,6.50
2018-03-17T12:00:14.534Z,6.40
2018-03-17T12:02:40.855Z,6.30
2018-03-17T12:05:07.907Z,6.30
2018-03-17T12:07:34.210Z,6.30
2018-03-17T12:10:02.021Z,6.30
2018-03-17T12:12:28.395Z,6.30
2018-03-17T12:14:54.706Z,6.30
2018-03-17T12:17:21.031Z,6.30
2018-03-17T12:19:48.355Z,6.40
2018-03-17T12:22:15.427Z,6.60
2018-03-17T12:24:41.735Z,6.50
2018-03-17T12:27:08.047Z,6.60
2018-03-17T12:29:34.521Z,6.70
2018-03-17T12:32:00.835Z,6.80
2018-03-17T12:34:27.154Z,6.80
2018-03-17T12:36:55.237Z,6.80
2018-03-17T12:39:21.559Z,6.80
2018-03-17T12:41:48.606Z,6.60
2018-03-17T12:44:14.925Z,6.60
2018-03-17T12:46:43.022Z,6.60
2018-03-17T12:49:09.344Z,6.50
2018-03-17T12:51:35.731Z,6.50
2018-03-17T12:54:02.044Z,6.40
2018-03-17T12:56:28.363Z,6.30
2018-03-17T12:58:54.674Z,6.30
2018-03-17T13:01:20.981Z,6.20
2018-03-17T13:03:48.042Z,6.10
2018-03-17T13:06:14.361Z,6.10
2018-03-17T13:08:41.414Z,6.20
2018-03-17T13:11:08.467Z,6.10
2018-03-17T13:13:34.778Z,6.10
2018-03-17T13:16:01.835Z,6.10
2018-03-17T13:18:28.900Z,5.80
2018-03-17T13:20:55.234Z,5.80
2018-03-17T13:23:21.554Z,5.80
2018-03-17T13:25:47.868Z,5.80
2018-03-17T13:28:31.758Z,5.90
2018-03-17T13:30:58.091Z,5.90
2018-03-17T13:33:24.422Z,5.90
2018-03-17T13:36:03.234Z,5.90
2018-03-17T13:38:29.672Z,5.90
2018-03-17T13:40:56.103Z,5.80
2018-03-17T13:43:22.563Z,5.90
2018-03-17T13:45:49.947Z,5.80
2018-03-17T13:48:16.377Z,5.90
2018-03-17T13:50:42.702Z,5.80
2018-03-17T13:53:09.035Z,5.80
2018-03-17T13:55:37.866Z,5.70
2018-03-17T13:58:04.191Z,5.80
2018-03-17T14:00:30.639Z,5.90
2018-03-17T14:02:57.109Z,5.90
2018-03-17T14:05:23.529Z,5.80
2018-03-17T14:07:49.975Z,5.80
2018-03-17T14:10:16.949Z,5.80
2018-03-17T14:12:43.309Z,5.70
2018-03-17T14:15:09.634Z,5.80
2018-03-17T14:17:35.963Z,5.80
2018-03-17T14:20:03.096Z,5.90
2018-03-17T14:22:30.271Z,5.90
2018-03-17T14:24:56.655Z,5.90
2018-03-17T14:27:22.979Z,5.90
2018-03-17T14:29:49.298Z,5.80
2018-03-17T14:32:15.638Z,5.80
2018-03-17T14:34:42.971Z,5.80
2018-03-17T14:37:10.286Z,5.80
2018-03-17T14:39:37.431Z,5.60
2018-03-17T14:42:04.503Z,5.60
2018-03-17T14:44:30.809Z,5.50
2018-03-17T14:46:57.882Z,5.40
2018-03-17T14:49:25.224Z,5.30
2018-03-17T14:51:51.551Z,5.30
2018-03-17T14:54:17.864Z,5.10
2018-03-17T14:56:45.006Z,5.10
2018-03-17T14:59:11.325Z,5.00
2018-03-17T15:01:37.643Z,5.00
2018-03-17T15:04:04.018Z,4.90
2018-03-17T15:06:32.082Z,4.90
2018-03-17T15:08:59.142Z,5.10
2018-03-17T15:11:25.458Z,5.00
2018-03-17T15:13:51.806Z,5.00
2018-03-17T15:16:18.138Z,5.10
2018-03-17T15:18:44.482Z,5.20
2018-03-17T15:21:11.700Z,5.10
2018-03-17T15:23:38.762Z,5.10
2018-03-17T15:26:05.814Z,5.10
2018-03-17T15:28:32.129Z,5.10
2018-03-17T15:30:59.183Z,5.00
2018-03-17T15:33:26.259Z,4.90
2018-03-17T15:35:52.595Z,4.90
2018-03-17T15:38:18.913Z,5.00
2018-03-17T15:40:45.456Z,4.90
2018-03-17T15:43:11.765Z,4.90
2018-03-17T15:45:38.083Z,4.80
2018-03-17T15:48:05.145Z,4.90
2018-03-17T15:50:31.485Z,4.90
2018-03-17T15:52:57.803Z,4.90
2018-03-17T15:55:24.123Z,4.80
2018-03-17T15:57:51.180Z,4.50
2018-03-17T16:00:17.532Z,4.50
2018-03-17T16:02:43.854Z,4.60
2018-03-17T16:05:10.179Z,4.40
2018-03-17T16:07:37.238Z,4.20
2018-03-17T16:10:03.596Z,4.20
2018-03-17T16:12:29.931Z,4.20
2018-03-17T16:14:57.234Z,4.20
2018-03-17T16:17:24.289Z,4.10
2018-03-17T16:19:51.352Z,4.00
2018-03-17T16:22:17.678Z,4.00
2018-03-17T16:24:43.999Z,4.00
2018-03-17T16:27:11.047Z,4.00
2018-03-17T16:29:39.090Z,4.00
2018-03-17T16:32:06.164Z,4.00
2018-03-17T16:34:33.247Z,4.10
2018-03-17T16:36:59.579Z,4.10
2018-03-17T16:39:25.967Z,4.10
2018-03-17T16:41:53.020Z,4.00
2018-03-17T16:44:20.083Z,4.00
2018-03-17T16:46:46.426Z,4.00
2018-03-17T16:49:12.764Z,3.80
2018-03-17T16:51:39.131Z,3.80
2018-03-17T16:54:05.481Z,3.90
2018-03-17T16:56:31.833Z,3.90
2018-03-17T16:58:58.898Z,3.70
2018-03-17T17:01:25.237Z,3.70
2018-03-17T17:03:51.587Z,3.80
2018-03-17T17:06:17.939Z,3.70
2018-03-17T17:08:45.065Z,3.60
2018-03-17T17:11:12.375Z,3.50
2018-03-17T17:13:39.440Z,3.50
2018-03-17T17:16:05.751Z,3.50
2018-03-17T17:18:33.870Z,3.30
2018-03-17T17:21:00.179Z,3.30
2018-03-17T17:23:27.527Z,3.30
2018-03-17T17:25:53.839Z,3.40
2018-03-17T17:28:20.934Z,3.30
2018-03-17T17:30:47.257Z,3.30
2018-03-17T17:33:13.579Z,3.30
2018-03-17T17:35:39.905Z,3.30
2018-03-17T17:38:06.224Z,3.30
2018-03-17T17:40:32.554Z,3.40
2018-03-17T17:42:58.887Z,3.30
2018-03-17T17:45:25.199Z,3.30
2018-03-17T17:47:52.267Z,3.30
2018-03-17T17:50:18.595Z,3.30
2018-03-17T17:52:44.904Z,3.20
2018-03-17T17:55:11.954Z,2.90
2018-03-17T17:57:39.018Z,2.90
2018-03-17T18:00:05.354Z,3.00
2018-03-17T18:02:33.459Z,2.90
2018-03-17T18:04:59.758Z,2.90
2018-03-17T18:07:26.063Z,2.90
2018-03-17T18:09:53.115Z,2.90
2018-03-17T18:12:20.204Z,2.90
2018-03-17T18:14:47.571Z,2.80
2018-03-17T18:17:14.934Z,2.90
2018-03-17T18:19:41.261Z,3.00
2018-03-17T18:22:08.600Z,3.10
2018-03-17T18:24:34.914Z,3.00
2018-03-17T18:27:01.236Z,2.90
2018-03-17T18:29:27.547Z,2.80
2018-03-17T18:31:54.830Z,2.80
2018-03-17T18:34:21.146Z,2.80
2018-03-17T18:36:48.203Z,2.90
2018-03-17T18:39:14.601Z,2.90
2018-03-17T18:41:40.965Z,2.70
2018-03-17T18:44:07.257Z,2.50
2018-03-17T18:46:33.596Z,2.50
2018-03-17T18:49:00.215Z,2.50
2018-03-17T18:51:26.530Z,2.40
2018-03-17T18:53:52.867Z,2.30
2018-03-17T18:56:19.226Z,2.20
2018-03-17T18:58:45.614Z,2.10
2018-03-17T19:01:11.923Z,2.10
2018-03-17T19:03:38.231Z,2.20
2018-03-17T19:06:05.282Z,2.00
2018-03-17T19:08:32.378Z,2.00
2018-03-17T19:10:58.741Z,1.90
2018-03-17T19:13:25.063Z,1.90
2018-03-17T19:15:51.390Z,1.90
2018-03-17T19:18:18.017Z,1.80
2018-03-17T19:20:44.354Z,1.90
2018-03-17T19:23:10.687Z,1.90
2018-03-17T19:25:37.011Z,2.00
2018-03-17T19:28:03.327Z,1.80
2018-03-17T19:30:29.662Z,1.70
2018-03-17T19:32:55.983Z,1.70
2018-03-17T19:35:22.319Z,1.80
2018-03-17T19:37:48.622Z,1.80
2018-03-17T19:40:14.942Z,1.80
2018-03-17T19:42:42.016Z,1.60
2018-03-17T19:45:08.323Z,1.60
2018-03-17T19:47:34.652Z,1.50
2018-03-17T19:50:01.704Z,1.60
2018-03-17T19:52:28.030Z,1.60
2018-03-17T19:54:55.075Z,1.60
2018-03-17T19:57:22.151Z,1.50
2018-03-17T19:59:48.462Z,1.50
2018-03-17T20:02:14.818Z,1.50
2018-03-17T20:04:41.143Z,1.40
2018-03-17T20:07:07.446Z,1.40
2018-03-17T20:09:34.490Z,1.40
2018-03-17T20:12:01.539Z,1.40
2018-03-17T20:14:28.613Z,1.40
2018-03-17T20:16:54.923Z,1.40
2018-03-17T20:19:21.247Z,1.40
2018-03-17T20:21:48.307Z,1.50
2018-03-17T20:24:14.627Z,1.50
2018-03-17T20:26:42.781Z,1.40
2018-03-17T20:29:09.086Z,1.40
2018-03-17T20:31:35.402Z,1.40
2018-03-17T20:34:01.730Z,1.30
2018-03-17T20:36:28.072Z,1.10
2018-03-17T20:38:54.424Z,1.00
2018-03-17T20:41:20.742Z,1.10
2018-03-17T20:43:47.095Z,1.10
2018-03-17T20:46:13.410Z,1.00
2018-03-17T20:48:39.751Z,0.90
2018-03-17T20:51:07.109Z,0.90
2018-03-17T20:53:33.471Z,0.90
2018-03-17T20:55:59.792Z,0.90
2018-03-17T20:58:26.846Z,0.80
2018-03-17T21:00:53.159Z,0.80
2018-03-17T21:03:20.221Z,0.80
2018-03-17T21:05:47.292Z,0.80
2018-03-17T21:08:13.622Z,0.80
2018-03-17T21:10:39.930Z,0.90
2018-03-17T21:13:06.990Z,0.80
2018-03-17T21:15:33.301Z,0.70
2018-03-17T21:18:00.364Z,0.70
2018-03-17T21:20:27.410Z,0.70
2018-03-17T21:22:54.467Z,0.70
2018-03-17T21:25:20.791Z,0.60
2018-03-17T21:27:47.846Z,0.50
2018-03-17T21:30:14.154Z,0.50
2018-03-17T21:32:41.231Z,0.60
2018-03-17T21:35:07.554Z,0.60
2018-03-17T21:37:33.866Z,0.60
2018-03-17T21:40:00.998Z,0.70
2018-03-17T21:42:27.544Z,0.70
2018-03-17T21:44:54.624Z,0.90
2018-03-17T21:47:22.990Z,0.70
2018-03-17T21:49:50.099Z,0.70
2018-03-17T21:52:16.420Z,0.60
2018-03-17T21:54:43.502Z,0.70
2018-03-17T21:57:10.558Z,0.60
2018-03-17T21:59:37.617Z,0.70
2018-03-17T22:02:03.987Z,0.60
2018-03-17T22:04:30.304Z,0.60
2018-03-17T22:06:57.669Z,0.70
2018-03-17T22:09:24.008Z,0.70
2018-03-17T22:11:50.321Z,0.60
2018-03-17T22:14:16.640Z,0.60
2018-03-17T22:16:42.987Z,0.70
2018-03-17T22:19:09.319Z,0.70
2018-03-17T22:21:35.634Z,0.70
2018-03-17T22:24:01.994Z,0.60
2018-03-17T22:26:28.305Z,0.60
2018-03-17T22:28:54.639Z,0.50
2018-03-17T22:31:20.955Z,0.50
2018-03-17T22:33:47.315Z,0.50
2018-03-17T22:36:13.635Z,0.50
2018-03-17T22:38:39.961Z,0.60
2018-03-17T22:41:07.314Z,0.50
2018-03-17T22:43:33.639Z,0.50
2018-03-17T22:45:59.981Z,0.40
2018-03-17T22:48:26.294Z,0.50
2018-03-17T22:50:53.661Z,0.50
2018-03-17T22:53:19.975Z,0.40
2018-03-17T22:55:46.316Z,0.40
2018-03-17T22:58:12.626Z,0.50
2018-03-17T23:00:39.973Z,0.40
2018-03-17T23:03:07.022Z,0.40
2018-03-17T23:05:34.254Z,0.50
2018-03-17T23:08:01.318Z,0.40
2018-03-17T23:10:28.374Z,0.50
2018-03-17T23:12:55.448Z,0.40
2018-03-17T23:15:21.821Z,0.40
2018-03-17T23:17:48.194Z,0.40
2018-03-17T23:20:14.527Z,0.30
2018-03-17T23:22:40.842Z,0.30
2018-03-17T23:25:07.908Z,0.40
2018-03-17T23:27:34.239Z,0.40
2018-03-17T23:30:00.595Z,0.50
2018-03-17T23:32:26.948Z,0.40
2018-03-17T23:34:53.304Z,0.50
2018-03-17T23:37:21.457Z,0.50
2018-03-17T23:39:47.826Z,0.50
2018-03-17T23:42:14.162Z,0.30
2018-03-17T23:44:40.482Z,0.30
2018-03-17T23:47:08.555Z,0.30
2018-03-17T23:49:35.873Z,0.20
2018-03-17T23:52:02.235Z,0.20
2018-03-17T23:54:29.323Z,0.40
2018-03-17T23:56:56.667Z,0.40
2018-03-17T23:59:23.006Z,0.40
